Terminal Aerodrome Forecast
Issued by NWS

Home | Current Version | Previous Version | Text Only | Print | Product List | Glossary On
Versions: 1 2 3 4 5 6 7 8 9 10 11 12 13 14 15
000
FTUS42 TJSJ 282035 AAA
TAFKPK
TAF AMD
TKPK 282035Z 2821/2918 05012KT P6SM VCSH FEW018
     FM290400 04008KT P6SM FEW018
     FM291300 08014KT P6SM SCT020
      AMD NOT SKED 2902/2911=

USA.gov is the U.S. government's official web portal to all federal, state and local government web resources and services.